Kasson, Minnesota
Current Conditions -  °F | °C
As of 6:54 PM on Sunday 21 Dec 2014 (Local Time) from KTOB Reporting Station
Drizzle Drizzle  
Wind Chill: 27°   Ceiling: 900
Heat Index: 37°   Visibility: 7mi
Dew Point: 37°   Wind: 20mph
Humidity: 100%   Direction: 190°S
Pressure: 29.74"   Gusts: 28mph
Location:  44.03°N, 92.75°W
Report Text: KTOB 220054Z AUTO 19017G24KT 7SM -DZ OVC009 03/03 A2974 RMK AO2
Loading
Personal Weather Stations






























Interactive Weather Map New forecast layout! Learn more

10-Day Weather Forecast

Advertisements
Track Severe Weather on mobile